sensor_id;sensor_type;location;lat;lon;timestamp;temperature;humidity
43991;DHT22;29654;50.784;20.604;2023-05-07T00:00:59;13.60;54.90
43991;DHT22;29654;50.784;20.604;2023-05-07T00:06:02;13.60;54.70
43991;DHT22;29654;50.784;20.604;2023-05-07T00:11:06;13.60;54.70
43991;DHT22;29654;50.784;20.604;2023-05-07T00:16:08;13.50;55.40
43991;DHT22;29654;50.784;20.604;2023-05-07T00:21:11;13.60;54.70
43991;DHT22;29654;50.784;20.604;2023-05-07T00:26:16;13.50;54.60
43991;DHT22;29654;50.784;20.604;2023-05-07T00:31:20;13.50;54.60
43991;DHT22;29654;50.784;20.604;2023-05-07T00:36:23;13.40;54.60
43991;DHT22;29654;50.784;20.604;2023-05-07T00:41:28;13.40;54.60
43991;DHT22;29654;50.784;20.604;2023-05-07T00:46:31;13.40;54.70
43991;DHT22;29654;50.784;20.604;2023-05-07T00:51:35;13.40;54.60
43991;DHT22;29654;50.784;20.604;2023-05-07T00:56:39;13.30;54.60
43991;DHT22;29654;50.784;20.604;2023-05-07T01:01:41;13.30;54.80
43991;DHT22;29654;50.784;20.604;2023-05-07T01:06:44;13.20;54.60
43991;DHT22;29654;50.784;20.604;2023-05-07T01:11:49;13.20;54.50
43991;DHT22;29654;50.784;20.604;2023-05-07T01:16:53;13.10;54.80
43991;DHT22;29654;50.784;20.604;2023-05-07T01:22:02;13.10;54.50
43991;DHT22;29654;50.784;20.604;2023-05-07T01:27:14;13.00;54.80
43991;DHT22;29654;50.784;20.604;2023-05-07T01:32:20;13.00;54.60
43991;DHT22;29654;50.784;20.604;2023-05-07T01:37:26;12.90;54.70
43991;DHT22;29654;50.784;20.604;2023-05-07T01:42:30;12.90;54.60
43991;DHT22;29654;50.784;20.604;2023-05-07T01:47:36;12.90;54.60
43991;DHT22;29654;50.784;20.604;2023-05-07T01:52:38;12.90;54.60
43991;DHT22;29654;50.784;20.604;2023-05-07T01:57:43;12.80;54.60
43991;DHT22;29654;50.784;20.604;2023-05-07T02:02:46;12.80;54.70
43991;DHT22;29654;50.784;20.604;2023-05-07T02:08:07;12.70;54.70
43991;DHT22;29654;50.784;20.604;2023-05-07T02:13:11;12.70;54.70
43991;DHT22;29654;50.784;20.604;2023-05-07T02:18:15;12.70;54.80
43991;DHT22;29654;50.784;20.604;2023-05-07T02:23:18;12.70;54.90
43991;DHT22;29654;50.784;20.604;2023-05-07T02:28:22;12.70;54.70
43991;DHT22;29654;50.784;20.604;2023-05-07T02:33:45;12.70;54.70
43991;DHT22;29654;50.784;20.604;2023-05-07T02:38:49;12.70;54.60
43991;DHT22;29654;50.784;20.604;2023-05-07T02:43:53;12.70;54.70
43991;DHT22;29654;50.784;20.604;2023-05-07T02:48:56;12.60;54.90
43991;DHT22;29654;50.784;20.604;2023-05-07T02:53:59;12.60;54.70
43991;DHT22;29654;50.784;20.604;2023-05-07T02:59:04;12.60;54.80
43991;DHT22;29654;50.784;20.604;2023-05-07T03:04:12;12.60;54.80
43991;DHT22;29654;50.784;20.604;2023-05-07T03:09:15;12.60;54.80
43991;DHT22;29654;50.784;20.604;2023-05-07T03:14:19;12.60;54.60
43991;DHT22;29654;50.784;20.604;2023-05-07T03:19:23;12.60;54.70
43991;DHT22;29654;50.784;20.604;2023-05-07T03:24:26;12.60;54.60
43991;DHT22;29654;50.784;20.604;2023-05-07T03:29:30;12.50;54.70
43991;DHT22;29654;50.784;20.604;2023-05-07T03:34:32;12.40;55.00
43991;DHT22;29654;50.784;20.604;2023-05-07T03:39:35;12.40;55.00
43991;DHT22;29654;50.784;20.604;2023-05-07T03:44:40;12.40;55.00
43991;DHT22;29654;50.784;20.604;2023-05-07T03:49:43;12.40;55.00
43991;DHT22;29654;50.784;20.604;2023-05-07T03:54:46;12.40;54.90
43991;DHT22;29654;50.784;20.604;2023-05-07T03:59:51;12.40;54.90
43991;DHT22;29654;50.784;20.604;2023-05-07T04:04:54;12.40;54.90
43991;DHT22;29654;50.784;20.604;2023-05-07T04:09:57;12.30;54.90
43991;DHT22;29654;50.784;20.604;2023-05-07T04:15:02;12.30;54.90
43991;DHT22;29654;50.784;20.604;2023-05-07T04:20:06;12.40;55.00
43991;DHT22;29654;50.784;20.604;2023-05-07T04:25:12;12.40;54.90
43991;DHT22;29654;50.784;20.604;2023-05-07T04:30:16;12.30;54.90
43991;DHT22;29654;50.784;20.604;2023-05-07T04:35:19;12.40;55.10
43991;DHT22;29654;50.784;20.604;2023-05-07T04:40:22;12.40;55.00
43991;DHT22;29654;50.784;20.604;2023-05-07T04:45:26;12.40;55.00
43991;DHT22;29654;50.784;20.604;2023-05-07T04:50:29;12.40;55.00
43991;DHT22;29654;50.784;20.604;2023-05-07T04:55:36;12.40;54.70
43991;DHT22;29654;50.784;20.604;2023-05-07T05:00:42;12.40;54.80
43991;DHT22;29654;50.784;20.604;2023-05-07T05:05:46;12.30;55.00
43991;DHT22;29654;50.784;20.604;2023-05-07T05:10:51;12.30;54.90
43991;DHT22;29654;50.784;20.604;2023-05-07T05:15:55;12.30;55.10
43991;DHT22;29654;50.784;20.604;2023-05-07T05:21:00;12.30;55.10
43991;DHT22;29654;50.784;20.604;2023-05-07T05:26:03;12.30;55.10
43991;DHT22;29654;50.784;20.604;2023-05-07T05:31:09;12.30;55.10
43991;DHT22;29654;50.784;20.604;2023-05-07T05:36:12;12.30;55.10
43991;DHT22;29654;50.784;20.604;2023-05-07T05:41:17;12.30;55.10
43991;DHT22;29654;50.784;20.604;2023-05-07T05:46:21;12.30;55.20
43991;DHT22;29654;50.784;20.604;2023-05-07T05:51:25;12.30;55.30
43991;DHT22;29654;50.784;20.604;2023-05-07T05:56:28;12.40;55.10
43991;DHT22;29654;50.784;20.604;2023-05-07T06:01:32;12.40;55.00
43991;DHT22;29654;50.784;20.604;2023-05-07T06:06:38;12.40;55.00
43991;DHT22;29654;50.784;20.604;2023-05-07T06:11:41;12.30;55.20
43991;DHT22;29654;50.784;20.604;2023-05-07T06:16:46;12.30;55.10
43991;DHT22;29654;50.784;20.604;2023-05-07T06:21:49;12.20;55.20
43991;DHT22;29654;50.784;20.604;2023-05-07T06:26:52;12.10;55.20
43991;DHT22;29654;50.784;20.604;2023-05-07T06:31:56;12.20;55.50
43991;DHT22;29654;50.784;20.604;2023-05-07T06:36:59;12.20;55.60
43991;DHT22;29654;50.784;20.604;2023-05-07T06:42:13;12.20;55.50
43991;DHT22;29654;50.784;20.604;2023-05-07T06:47:22;12.30;55.40
43991;DHT22;29654;50.784;20.604;2023-05-07T06:52:28;12.30;55.50
43991;DHT22;29654;50.784;20.604;2023-05-07T06:57:30;12.30;55.30
43991;DHT22;29654;50.784;20.604;2023-05-07T07:02:34;12.30;55.10
43991;DHT22;29654;50.784;20.604;2023-05-07T07:07:38;12.40;55.30
43991;DHT22;29654;50.784;20.604;2023-05-07T07:12:42;12.40;55.10
43991;DHT22;29654;50.784;20.604;2023-05-07T07:17:46;12.40;55.00
43991;DHT22;29654;50.784;20.604;2023-05-07T07:22:49;12.40;55.00
43991;DHT22;29654;50.784;20.604;2023-05-07T07:27:52;12.40;55.10
43991;DHT22;29654;50.784;20.604;2023-05-07T07:32:57;12.40;55.10
43991;DHT22;29654;50.784;20.604;2023-05-07T07:38:04;12.50;55.40
43991;DHT22;29654;50.784;20.604;2023-05-07T07:43:07;12.50;55.30
43991;DHT22;29654;50.784;20.604;2023-05-07T07:48:11;12.50;55.30
43991;DHT22;29654;50.784;20.604;2023-05-07T07:53:13;12.50;55.30
43991;DHT22;29654;50.784;20.604;2023-05-07T07:58:16;12.60;55.20
43991;DHT22;29654;50.784;20.604;2023-05-07T08:03:21;12.60;55.20
43991;DHT22;29654;50.784;20.604;2023-05-07T08:08:27;12.50;55.10
43991;DHT22;29654;50.784;20.604;2023-05-07T08:13:31;12.50;55.10
43991;DHT22;29654;50.784;20.604;2023-05-07T08:18:36;12.60;55.20
43991;DHT22;29654;50.784;20.604;2023-05-07T08:23:38;12.60;55.20
43991;DHT22;29654;50.784;20.604;2023-05-07T08:28:42;12.60;55.10
43991;DHT22;29654;50.784;20.604;2023-05-07T08:33:46;12.50;55.10
43991;DHT22;29654;50.784;20.604;2023-05-07T08:38:49;12.60;55.40
43991;DHT22;29654;50.784;20.604;2023-05-07T08:43:52;12.70;55.30
43991;DHT22;29654;50.784;20.604;2023-05-07T08:48:58;12.70;55.10
43991;DHT22;29654;50.784;20.604;2023-05-07T08:54:02;12.80;55.10
43991;DHT22;29654;50.784;20.604;2023-05-07T08:59:07;12.90;55.00
43991;DHT22;29654;50.784;20.604;2023-05-07T09:04:12;12.90;54.90
43991;DHT22;29654;50.784;20.604;2023-05-07T09:09:17;13.00;54.90
43991;DHT22;29654;50.784;20.604;2023-05-07T09:14:21;13.00;54.60
43991;DHT22;29654;50.784;20.604;2023-05-07T09:19:26;13.10;54.50
43991;DHT22;29654;50.784;20.604;2023-05-07T09:24:32;13.10;54.50
43991;DHT22;29654;50.784;20.604;2023-05-07T09:29:39;13.10;54.50
43991;DHT22;29654;50.784;20.604;2023-05-07T09:34:43;13.10;54.40
43991;DHT22;29654;50.784;20.604;2023-05-07T09:39:49;13.10;54.50
43991;DHT22;29654;50.784;20.604;2023-05-07T09:44:56;13.20;54.30
43991;DHT22;29654;50.784;20.604;2023-05-07T09:50:06;13.20;54.20
43991;DHT22;29654;50.784;20.604;2023-05-07T09:55:12;13.20;54.20
43991;DHT22;29654;50.784;20.604;2023-05-07T10:00:17;13.20;54.10
43991;DHT22;29654;50.784;20.604;2023-05-07T10:05:24;13.10;54.20
43991;DHT22;29654;50.784;20.604;2023-05-07T10:10:32;13.10;54.30
43991;DHT22;29654;50.784;20.604;2023-05-07T10:15:36;13.00;54.50
43991;DHT22;29654;50.784;20.604;2023-05-07T10:20:43;13.00;54.30
43991;DHT22;29654;50.784;20.604;2023-05-07T10:25:48;13.10;54.50
43991;DHT22;29654;50.784;20.604;2023-05-07T10:31:05;13.10;54.50
43991;DHT22;29654;50.784;20.604;2023-05-07T10:36:21;13.10;54.50
43991;DHT22;29654;50.784;20.604;2023-05-07T10:41:26;13.10;54.40
43991;DHT22;29654;50.784;20.604;2023-05-07T10:46:29;13.00;54.30
43991;DHT22;29654;50.784;20.604;2023-05-07T10:51:43;13.00;54.40
43991;DHT22;29654;50.784;20.604;2023-05-07T10:57:36;13.00;54.50
43991;DHT22;29654;50.784;20.604;2023-05-07T11:03:06;13.10;55.00
43991;DHT22;29654;50.784;20.604;2023-05-07T11:08:23;13.30;55.10
43991;DHT22;29654;50.784;20.604;2023-05-07T11:13:46;13.40;54.70
43991;DHT22;29654;50.784;20.604;2023-05-07T11:19:08;13.60;54.60
43991;DHT22;29654;50.784;20.604;2023-05-07T11:24:17;13.60;54.30
43991;DHT22;29654;50.784;20.604;2023-05-07T11:29:30;13.60;54.00
43991;DHT22;29654;50.784;20.604;2023-05-07T11:34:47;13.60;54.10
43991;DHT22;29654;50.784;20.604;2023-05-07T11:40:03;13.50;54.00
43991;DHT22;29654;50.784;20.604;2023-05-07T11:45:08;13.40;54.00
43991;DHT22;29654;50.784;20.604;2023-05-07T11:50:11;13.30;54.00
43991;DHT22;29654;50.784;20.604;2023-05-07T11:55:18;13.20;54.00
43991;DHT22;29654;50.784;20.604;2023-05-07T12:00:24;13.10;54.30
43991;DHT22;29654;50.784;20.604;2023-05-07T12:05:26;13.10;54.60
43991;DHT22;29654;50.784;20.604;2023-05-07T12:10:31;13.10;54.60
43991;DHT22;29654;50.784;20.604;2023-05-07T12:15:36;13.00;54.60
43991;DHT22;29654;50.784;20.604;2023-05-07T12:20:39;13.10;54.60
43991;DHT22;29654;50.784;20.604;2023-05-07T12:25:43;13.10;54.50
43991;DHT22;29654;50.784;20.604;2023-05-07T12:30:50;13.20;54.40
43991;DHT22;29654;50.784;20.604;2023-05-07T12:35:55;13.10;54.30
43991;DHT22;29654;50.784;20.604;2023-05-07T12:40:58;13.10;54.20
43991;DHT22;29654;50.784;20.604;2023-05-07T12:46:04;13.00;54.40
43991;DHT22;29654;50.784;20.604;2023-05-07T12:51:07;13.00;54.60
43991;DHT22;29654;50.784;20.604;2023-05-07T12:56:11;12.90;54.60
43991;DHT22;29654;50.784;20.604;2023-05-07T13:01:19;12.90;54.70
43991;DHT22;29654;50.784;20.604;2023-05-07T13:06:22;12.90;54.70
43991;DHT22;29654;50.784;20.604;2023-05-07T13:11:25;12.90;54.60
43991;DHT22;29654;50.784;20.604;2023-05-07T13:16:29;12.90;54.60
43991;DHT22;29654;50.784;20.604;2023-05-07T13:21:31;12.90;54.60
43991;DHT22;29654;50.784;20.604;2023-05-07T13:26:34;12.90;54.80
43991;DHT22;29654;50.784;20.604;2023-05-07T13:31:38;12.90;54.80
43991;DHT22;29654;50.784;20.604;2023-05-07T13:36:43;12.90;54.90
43991;DHT22;29654;50.784;20.604;2023-05-07T13:41:46;13.00;54.70
43991;DHT22;29654;50.784;20.604;2023-05-07T13:46:50;13.10;54.70
43991;DHT22;29654;50.784;20.604;2023-05-07T13:51:53;13.10;54.60
43991;DHT22;29654;50.784;20.604;2023-05-07T13:56:55;13.10;54.60
43991;DHT22;29654;50.784;20.604;2023-05-07T14:02:00;13.10;54.60
43991;DHT22;29654;50.784;20.604;2023-05-07T14:07:04;13.20;54.60
43991;DHT22;29654;50.784;20.604;2023-05-07T14:12:07;13.30;54.50
43991;DHT22;29654;50.784;20.604;2023-05-07T14:17:11;13.30;54.40
43991;DHT22;29654;50.784;20.604;2023-05-07T14:22:14;13.20;54.40
43991;DHT22;29654;50.784;20.604;2023-05-07T14:27:16;13.20;54.40
43991;DHT22;29654;50.784;20.604;2023-05-07T14:32:21;13.30;54.40
43991;DHT22;29654;50.784;20.604;2023-05-07T14:37:24;13.30;54.30
43991;DHT22;29654;50.784;20.604;2023-05-07T14:42:27;13.30;54.20
43991;DHT22;29654;50.784;20.604;2023-05-07T14:47:32;13.40;54.10
43991;DHT22;29654;50.784;20.604;2023-05-07T14:52:35;13.40;54.10
43991;DHT22;29654;50.784;20.604;2023-05-07T14:57:39;13.50;54.10
43991;DHT22;29654;50.784;20.604;2023-05-07T15:02:43;13.50;53.90
43991;DHT22;29654;50.784;20.604;2023-05-07T15:07:46;13.50;54.00
43991;DHT22;29654;50.784;20.604;2023-05-07T15:12:48;13.60;53.90
43991;DHT22;29654;50.784;20.604;2023-05-07T15:17:52;13.60;53.60
43991;DHT22;29654;50.784;20.604;2023-05-07T15:22:55;13.60;53.50
43991;DHT22;29654;50.784;20.604;2023-05-07T15:27:59;13.50;53.40
43991;DHT22;29654;50.784;20.604;2023-05-07T15:33:03;13.60;53.40
43991;DHT22;29654;50.784;20.604;2023-05-07T15:38:06;13.50;53.30
43991;DHT22;29654;50.784;20.604;2023-05-07T15:43:09;13.50;53.30
43991;DHT22;29654;50.784;20.604;2023-05-07T15:48:14;13.40;53.30
43991;DHT22;29654;50.784;20.604;2023-05-07T15:53:17;13.40;53.40
43991;DHT22;29654;50.784;20.604;2023-05-07T15:58:20;13.40;53.50
43991;DHT22;29654;50.784;20.604;2023-05-07T16:03:24;13.40;53.40
43991;DHT22;29654;50.784;20.604;2023-05-07T16:08:27;13.40;53.50
43991;DHT22;29654;50.784;20.604;2023-05-07T16:13:30;13.40;53.40
43991;DHT22;29654;50.784;20.604;2023-05-07T16:18:34;13.40;53.40
43991;DHT22;29654;50.784;20.604;2023-05-07T16:23:37;13.40;53.40
43991;DHT22;29654;50.784;20.604;2023-05-07T16:28:39;13.30;53.30
43991;DHT22;29654;50.784;20.604;2023-05-07T16:33:43;13.30;53.40
43991;DHT22;29654;50.784;20.604;2023-05-07T16:38:46;13.30;53.40
43991;DHT22;29654;50.784;20.604;2023-05-07T16:43:48;13.30;53.40
43991;DHT22;29654;50.784;20.604;2023-05-07T16:48:53;13.30;53.40
43991;DHT22;29654;50.784;20.604;2023-05-07T16:53:56;13.30;53.40
43991;DHT22;29654;50.784;20.604;2023-05-07T16:58:58;13.30;53.40
43991;DHT22;29654;50.784;20.604;2023-05-07T17:04:02;13.30;53.30
43991;DHT22;29654;50.784;20.604;2023-05-07T17:09:05;13.30;53.40
43991;DHT22;29654;50.784;20.604;2023-05-07T17:14:08;13.30;52.90
43991;DHT22;29654;50.784;20.604;2023-05-07T17:19:12;13.20;53.40
43991;DHT22;29654;50.784;20.604;2023-05-07T17:24:15;13.20;53.50
43991;DHT22;29654;50.784;20.604;2023-05-07T17:29:18;13.20;53.40
43991;DHT22;29654;50.784;20.604;2023-05-07T17:34:22;13.30;53.40
43991;DHT22;29654;50.784;20.604;2023-05-07T17:39:25;13.30;53.50
43991;DHT22;29654;50.784;20.604;2023-05-07T17:44:28;13.20;53.40
43991;DHT22;29654;50.784;20.604;2023-05-07T17:49:32;13.20;53.40
43991;DHT22;29654;50.784;20.604;2023-05-07T17:54:34;13.20;53.40
43991;DHT22;29654;50.784;20.604;2023-05-07T17:59:37;13.20;53.40
43991;DHT22;29654;50.784;20.604;2023-05-07T18:04:41;13.30;53.50
43991;DHT22;29654;50.784;20.604;2023-05-07T18:09:44;13.30;54.20
43991;DHT22;29654;50.784;20.604;2023-05-07T18:14:46;13.40;53.50
43991;DHT22;29654;50.784;20.604;2023-05-07T18:19:51;13.40;53.40
43991;DHT22;29654;50.784;20.604;2023-05-07T18:24:53;13.40;53.40
43991;DHT22;29654;50.784;20.604;2023-05-07T18:29:56;13.40;53.40
43991;DHT22;29654;50.784;20.604;2023-05-07T18:35:00;13.40;53.40
43991;DHT22;29654;50.784;20.604;2023-05-07T18:40:04;13.40;53.40
43991;DHT22;29654;50.784;20.604;2023-05-07T18:45:08;13.50;53.30
43991;DHT22;29654;50.784;20.604;2023-05-07T18:50:12;13.40;53.10
43991;DHT22;29654;50.784;20.604;2023-05-07T18:55:16;13.30;53.00
43991;DHT22;29654;50.784;20.604;2023-05-07T19:00:21;13.30;53.00
43991;DHT22;29654;50.784;20.604;2023-05-07T19:05:26;13.20;53.00
43991;DHT22;29654;50.784;20.604;2023-05-07T19:10:28;13.10;53.10
43991;DHT22;29654;50.784;20.604;2023-05-07T19:15:31;13.00;53.20
43991;DHT22;29654;50.784;20.604;2023-05-07T19:20:35;12.90;53.40
43991;DHT22;29654;50.784;20.604;2023-05-07T19:25:37;12.90;53.40
43991;DHT22;29654;50.784;20.604;2023-05-07T19:30:40;12.90;53.40
43991;DHT22;29654;50.784;20.604;2023-05-07T19:35:44;12.80;53.40
43991;DHT22;29654;50.784;20.604;2023-05-07T19:40:46;12.80;53.50
43991;DHT22;29654;50.784;20.604;2023-05-07T19:45:51;12.80;53.60
43991;DHT22;29654;50.784;20.604;2023-05-07T19:50:56;12.80;53.70
43991;DHT22;29654;50.784;20.604;2023-05-07T19:56:02;12.80;54.40
43991;DHT22;29654;50.784;20.604;2023-05-07T20:01:06;12.90;53.70
43991;DHT22;29654;50.784;20.604;2023-05-07T20:06:10;12.80;53.60
43991;DHT22;29654;50.784;20.604;2023-05-07T20:11:13;12.80;53.70
43991;DHT22;29654;50.784;20.604;2023-05-07T20:16:16;12.80;53.60
43991;DHT22;29654;50.784;20.604;2023-05-07T20:21:20;12.90;53.70
43991;DHT22;29654;50.784;20.604;2023-05-07T20:26:24;12.80;53.70
43991;DHT22;29654;50.784;20.604;2023-05-07T20:31:27;12.90;53.60
43991;DHT22;29654;50.784;20.604;2023-05-07T20:36:33;12.80;53.40
43991;DHT22;29654;50.784;20.604;2023-05-07T20:41:35;12.80;53.50
43991;DHT22;29654;50.784;20.604;2023-05-07T20:46:38;12.80;53.50
43991;DHT22;29654;50.784;20.604;2023-05-07T20:51:42;12.70;53.40
43991;DHT22;29654;50.784;20.604;2023-05-07T20:56:45;12.70;53.50
43991;DHT22;29654;50.784;20.604;2023-05-07T21:01:48;12.70;53.60
43991;DHT22;29654;50.784;20.604;2023-05-07T21:06:52;12.70;53.50
43991;DHT22;29654;50.784;20.604;2023-05-07T21:11:54;12.70;53.30
43991;DHT22;29654;50.784;20.604;2023-05-07T21:16:57;12.70;53.30
43991;DHT22;29654;50.784;20.604;2023-05-07T21:22:02;12.60;53.40
43991;DHT22;29654;50.784;20.604;2023-05-07T21:27:05;12.60;53.40
43991;DHT22;29654;50.784;20.604;2023-05-07T21:32:07;12.60;53.40
43991;DHT22;29654;50.784;20.604;2023-05-07T21:37:11;12.50;53.50
43991;DHT22;29654;50.784;20.604;2023-05-07T21:42:15;12.50;53.60
43991;DHT22;29654;50.784;20.604;2023-05-07T21:47:18;12.50;53.50
43991;DHT22;29654;50.784;20.604;2023-05-07T21:52:22;12.50;53.50
43991;DHT22;29654;50.784;20.604;2023-05-07T21:57:26;12.40;53.50
43991;DHT22;29654;50.784;20.604;2023-05-07T22:02:28;12.40;53.50
43991;DHT22;29654;50.784;20.604;2023-05-07T22:07:57;12.40;53.50
43991;DHT22;29654;50.784;20.604;2023-05-07T22:13:00;12.40;53.50
43991;DHT22;29654;50.784;20.604;2023-05-07T22:18:03;12.30;53.40
43991;DHT22;29654;50.784;20.604;2023-05-07T22:23:07;12.30;53.40
43991;DHT22;29654;50.784;20.604;2023-05-07T22:28:10;12.30;53.50
43991;DHT22;29654;50.784;20.604;2023-05-07T22:33:12;12.30;53.50
43991;DHT22;29654;50.784;20.604;2023-05-07T22:38:16;12.30;53.40
43991;DHT22;29654;50.784;20.604;2023-05-07T22:43:19;12.30;53.60
43991;DHT22;29654;50.784;20.604;2023-05-07T22:48:21;12.20;53.60
43991;DHT22;29654;50.784;20.604;2023-05-07T22:53:25;12.20;53.60
43991;DHT22;29654;50.784;20.604;2023-05-07T22:58:28;12.20;53.50
43991;DHT22;29654;50.784;20.604;2023-05-07T23:03:31;12.20;53.40
43991;DHT22;29654;50.784;20.604;2023-05-07T23:08:35;12.10;53.50
43991;DHT22;29654;50.784;20.604;2023-05-07T23:13:37;12.10;53.50
43991;DHT22;29654;50.784;20.604;2023-05-07T23:18:40;12.10;53.40
43991;DHT22;29654;50.784;20.604;2023-05-07T23:23:44;12.00;53.30
43991;DHT22;29654;50.784;20.604;2023-05-07T23:28:47;12.00;53.30
43991;DHT22;29654;50.784;20.604;2023-05-07T23:33:50;11.90;53.30
43991;DHT22;29654;50.784;20.604;2023-05-07T23:38:54;11.90;53.20
43991;DHT22;29654;50.784;20.604;2023-05-07T23:43:57;11.80;53.30
43991;DHT22;29654;50.784;20.604;2023-05-07T23:48:59;11.60;53.30
43991;DHT22;29654;50.784;20.604;2023-05-07T23:54:03;11.50;53.50
43991;DHT22;29654;50.784;20.604;2023-05-07T23:59:06;11.50;53.70
